createdAt,value
2019-05-09T00:00:35.639Z,0.60
2019-05-09T00:01:35.612Z,0.50
2019-05-09T00:02:35.593Z,0.60
2019-05-09T00:03:35.595Z,0.50
2019-05-09T00:04:35.554Z,0.50
2019-05-09T00:05:35.564Z,0.40
2019-05-09T00:06:35.533Z,0.50
2019-05-09T00:07:35.524Z,0.40
2019-05-09T00:08:36.088Z,0.40
2019-05-09T00:09:35.514Z,0.70
2019-05-09T00:10:41.640Z,0.40
2019-05-09T00:11:36.067Z,0.60
2019-05-09T00:12:35.467Z,0.60
2019-05-09T00:13:35.475Z,0.50
2019-05-09T00:14:35.463Z,0.40
2019-05-09T00:15:35.476Z,0.40
2019-05-09T00:16:35.475Z,0.40
2019-05-09T00:17:35.411Z,0.50
2019-05-09T00:18:35.418Z,0.50
2019-05-09T00:19:36.063Z,0.40
2019-05-09T00:20:35.576Z,0.40
2019-05-09T00:21:35.394Z,0.50
2019-05-09T00:22:35.388Z,0.60
2019-05-09T00:23:35.351Z,0.50
2019-05-09T00:24:35.355Z,0.40
2019-05-09T00:25:35.568Z,0.40
2019-05-09T00:26:35.582Z,0.70
2019-05-09T00:27:35.323Z,0.40
2019-05-09T00:28:36.063Z,0.70
2019-05-09T00:29:35.325Z,0.60
2019-05-09T00:30:35.292Z,0.40
2019-05-09T00:31:35.325Z,0.60
2019-05-09T00:32:35.247Z,0.60
2019-05-09T00:33:35.238Z,0.50
2019-05-09T00:34:35.261Z,0.50
2019-05-09T00:35:35.218Z,0.50
2019-05-09T00:36:35.238Z,0.60
2019-05-09T00:37:35.225Z,0.60
2019-05-09T00:38:35.184Z,0.40
2019-05-09T00:39:35.188Z,0.50
2019-05-09T00:40:35.162Z,0.60
2019-05-09T00:41:35.568Z,0.50
2019-05-09T00:42:35.162Z,0.30
2019-05-09T00:43:36.053Z,0.50
2019-05-09T00:44:35.155Z,0.30
2019-05-09T00:45:35.115Z,0.40
2019-05-09T00:46:35.108Z,0.50
2019-05-09T00:47:35.092Z,0.50
2019-05-09T00:48:36.060Z,0.50
2019-05-09T00:49:36.067Z,0.40
2019-05-09T00:50:35.066Z,0.60
2019-05-09T00:51:35.053Z,0.50
2019-05-09T00:52:35.032Z,0.70
2019-05-09T00:53:35.049Z,0.50
2019-05-09T00:54:35.048Z,0.50
2019-05-09T00:55:35.566Z,0.60
2019-05-09T00:56:35.006Z,0.40
2019-05-09T00:57:34.978Z,0.50
2019-05-09T00:58:35.561Z,0.40
2019-05-09T00:59:34.981Z,0.50
2019-05-09T01:00:35.549Z,0.50
2019-05-09T01:01:34.952Z,0.50
2019-05-09T01:02:34.923Z,0.60
2019-05-09T01:03:34.909Z,0.50
2019-05-09T01:04:34.909Z,0.40
2019-05-09T01:05:34.924Z,0.40
2019-05-09T01:06:34.914Z,0.60
2019-05-09T01:07:34.874Z,0.40
2019-05-09T01:08:34.858Z,0.40
2019-05-09T01:09:34.844Z,0.40
2019-05-09T01:10:34.872Z,0.40
2019-05-09T01:11:34.863Z,0.40
2019-05-09T01:12:34.858Z,0.50
2019-05-09T01:13:34.821Z,0.40
2019-05-09T01:14:35.590Z,0.40
2019-05-09T01:15:34.796Z,0.50
2019-05-09T01:16:34.785Z,0.40
2019-05-09T01:17:34.808Z,0.40
2019-05-09T01:18:34.756Z,0.40
2019-05-09T01:19:34.762Z,0.40
2019-05-09T01:20:35.567Z,0.50
2019-05-09T01:21:34.727Z,0.50
2019-05-09T01:22:35.070Z,0.50
2019-05-09T01:23:35.568Z,0.50
2019-05-09T01:24:34.695Z,0.40
2019-05-09T01:25:34.683Z,0.70
2019-05-09T01:26:34.670Z,0.30
2019-05-09T01:27:35.090Z,0.40
2019-05-09T01:28:34.645Z,0.50
2019-05-09T01:29:34.663Z,0.50
2019-05-09T01:30:35.576Z,0.40
2019-05-09T01:31:35.556Z,0.40
2019-05-09T01:32:35.083Z,0.60
2019-05-09T01:33:35.562Z,0.50
2019-05-09T01:34:34.594Z,0.20
2019-05-09T01:35:34.577Z,0.50
2019-05-09T01:36:34.551Z,0.50
2019-05-09T01:37:34.553Z,0.40
2019-05-09T01:38:34.531Z,0.40
2019-05-09T01:39:34.530Z,0.50
2019-05-09T01:40:34.544Z,0.70
2019-05-09T01:41:34.501Z,0.50
2019-05-09T01:42:34.533Z,0.50
2019-05-09T01:43:34.489Z,0.30
2019-05-09T01:44:34.468Z,0.40
2019-05-09T01:45:35.092Z,0.60
2019-05-09T01:46:35.082Z,0.40
2019-05-09T01:47:34.593Z,0.50
2019-05-09T01:48:34.421Z,0.40
2019-05-09T01:49:35.057Z,0.50
2019-05-09T01:50:35.072Z,0.40
2019-05-09T01:51:34.443Z,0.40
2019-05-09T01:52:34.377Z,0.70
2019-05-09T01:53:34.569Z,0.50
2019-05-09T01:54:34.355Z,0.40
2019-05-09T01:55:34.369Z,0.40
2019-05-09T01:56:34.333Z,0.40
2019-05-09T01:57:34.334Z,0.60
2019-05-09T01:58:34.736Z,0.30
2019-05-09T01:59:34.314Z,0.50
2019-05-09T02:00:34.325Z,0.40
2019-05-09T02:01:34.458Z,0.50
2019-05-09T02:02:35.060Z,0.50
2019-05-09T02:03:34.601Z,0.40
2019-05-09T02:04:34.274Z,0.40
2019-05-09T02:05:34.244Z,0.40
2019-05-09T02:06:34.223Z,0.40
2019-05-09T02:07:34.228Z,0.40
2019-05-09T02:08:34.752Z,0.50
2019-05-09T02:09:35.091Z,0.60
2019-05-09T02:10:34.728Z,0.40
2019-05-09T02:11:42.261Z,0.50
2019-05-09T02:12:34.156Z,0.40
2019-05-09T02:13:34.581Z,0.40
2019-05-09T02:14:34.431Z,0.30
2019-05-09T02:15:34.249Z,0.40
2019-05-09T02:16:34.119Z,0.40
2019-05-09T02:17:34.117Z,0.50
2019-05-09T02:18:34.591Z,0.50
2019-05-09T02:19:35.065Z,0.50
2019-05-09T02:20:34.072Z,0.40
2019-05-09T02:21:34.572Z,0.50
2019-05-09T02:22:34.655Z,0.50
2019-05-09T02:23:34.087Z,0.40
2019-05-09T02:24:34.122Z,0.30
2019-05-09T02:25:34.024Z,0.40
2019-05-09T02:26:34.018Z,0.40
2019-05-09T02:27:34.575Z,0.40
2019-05-09T02:28:34.275Z,0.60
2019-05-09T02:29:33.974Z,0.40
2019-05-09T02:30:36.074Z,0.40
2019-05-09T02:31:35.307Z,0.50
2019-05-09T02:32:34.729Z,0.40
2019-05-09T02:33:34.917Z,0.50
2019-05-09T02:34:35.571Z,0.50
2019-05-09T02:35:43.409Z,0.50
2019-05-09T02:36:33.908Z,0.40
2019-05-09T02:37:33.901Z,0.30
2019-05-09T02:38:34.084Z,0.40
2019-05-09T02:39:33.871Z,0.60
2019-05-09T02:40:33.868Z,0.50
2019-05-09T02:41:34.567Z,0.30
2019-05-09T02:42:33.851Z,0.40
2019-05-09T02:43:34.137Z,0.80
2019-05-09T02:44:34.572Z,0.40
2019-05-09T02:45:34.618Z,0.40
2019-05-09T02:46:34.568Z,0.40
2019-05-09T02:47:33.806Z,0.50
2019-05-09T02:48:34.098Z,0.50
2019-05-09T02:49:34.101Z,0.50
2019-05-09T02:50:33.766Z,0.40
2019-05-09T02:51:33.742Z,0.60
2019-05-09T02:52:34.563Z,0.50
2019-05-09T02:53:33.743Z,0.40
2019-05-09T02:54:34.087Z,0.40
2019-05-09T02:55:33.701Z,0.40
2019-05-09T02:56:33.743Z,0.60
2019-05-09T02:57:33.667Z,0.50
2019-05-09T02:58:34.568Z,0.40
2019-05-09T02:59:34.100Z,0.40
2019-05-09T03:00:33.669Z,0.40
2019-05-09T03:01:33.625Z,0.40
2019-05-09T03:02:33.611Z,0.40
2019-05-09T03:03:34.601Z,0.40
2019-05-09T03:04:33.601Z,0.30
2019-05-09T03:05:33.620Z,0.50
2019-05-09T03:06:34.568Z,0.40
2019-05-09T03:07:33.564Z,0.50
2019-05-09T03:08:33.551Z,0.30
2019-05-09T03:09:33.610Z,0.30
2019-05-09T03:10:34.093Z,0.40
2019-05-09T03:11:34.074Z,0.50
2019-05-09T03:12:35.755Z,0.30
2019-05-09T03:13:33.519Z,0.40
2019-05-09T03:14:33.480Z,0.30
2019-05-09T03:15:33.574Z,0.40
2019-05-09T03:16:34.093Z,0.30
2019-05-09T03:17:33.481Z,0.40
2019-05-09T03:18:33.439Z,0.40
2019-05-09T03:19:33.427Z,0.40
2019-05-09T03:20:33.587Z,0.40
2019-05-09T03:21:33.436Z,0.40
2019-05-09T03:22:33.406Z,0.40
2019-05-09T03:23:33.381Z,0.40
2019-05-09T03:24:33.390Z,0.40
2019-05-09T03:25:33.387Z,0.40
2019-05-09T03:26:33.361Z,0.50
2019-05-09T03:27:33.338Z,0.40
2019-05-09T03:28:33.338Z,0.40
2019-05-09T03:29:34.081Z,0.30
2019-05-09T03:30:33.326Z,0.30
2019-05-09T03:31:33.314Z,0.40
2019-05-09T03:32:34.075Z,0.30
2019-05-09T03:33:35.825Z,0.40
2019-05-09T03:34:33.270Z,0.30
2019-05-09T03:35:33.276Z,0.40
2019-05-09T03:36:33.239Z,0.30
2019-05-09T03:37:34.063Z,0.30
2019-05-09T03:38:34.066Z,0.30
2019-05-09T03:39:33.211Z,0.50
2019-05-09T03:40:33.230Z,0.30
2019-05-09T03:41:33.186Z,0.40
2019-05-09T03:42:41.074Z,0.50
2019-05-09T03:43:33.163Z,0.40
2019-05-09T03:44:33.156Z,0.50
2019-05-09T03:45:33.186Z,0.40
2019-05-09T03:46:33.594Z,0.30
2019-05-09T03:47:33.149Z,0.50
2019-05-09T03:48:33.108Z,0.40
2019-05-09T03:49:33.130Z,0.30
2019-05-09T03:50:33.107Z,0.50
2019-05-09T03:51:33.106Z,0.40
2019-05-09T03:52:33.072Z,0.40
2019-05-09T03:53:33.058Z,0.30
2019-05-09T03:54:33.565Z,0.20
2019-05-09T03:55:33.066Z,0.40
2019-05-09T03:56:33.093Z,0.30
2019-05-09T03:57:33.058Z,0.40
2019-05-09T03:58:33.028Z,0.50
2019-05-09T03:59:32.992Z,0.40
2019-05-09T04:00:32.979Z,0.40
2019-05-09T04:01:33.104Z,0.70
2019-05-09T04:02:33.590Z,0.50
2019-05-09T04:03:32.965Z,0.30
2019-05-09T04:04:32.941Z,0.50
2019-05-09T04:05:32.943Z,0.50
2019-05-09T04:06:32.948Z,0.30
2019-05-09T04:07:33.589Z,0.30
2019-05-09T04:08:32.914Z,0.30
2019-05-09T04:09:32.895Z,0.30
2019-05-09T04:10:33.567Z,0.40
2019-05-09T04:11:32.905Z,0.30
2019-05-09T04:12:32.848Z,0.30
2019-05-09T04:13:32.835Z,0.30
2019-05-09T04:14:32.847Z,0.50
2019-05-09T04:15:32.819Z,0.70
2019-05-09T04:16:32.819Z,0.40
2019-05-09T04:17:33.581Z,0.20
2019-05-09T04:18:32.788Z,0.50
2019-05-09T04:19:32.783Z,0.40
2019-05-09T04:20:32.772Z,0.40
2019-05-09T04:21:33.096Z,0.40
2019-05-09T04:22:32.750Z,0.30
2019-05-09T04:23:32.728Z,0.40
2019-05-09T04:24:32.715Z,0.30
2019-05-09T04:25:32.725Z,0.30
2019-05-09T04:26:32.696Z,0.40
2019-05-09T04:27:32.709Z,0.40
2019-05-09T04:28:33.580Z,0.40
2019-05-09T04:29:32.665Z,0.30
2019-05-09T04:30:32.660Z,0.40
2019-05-09T04:31:33.572Z,0.30
2019-05-09T04:32:33.116Z,0.20
2019-05-09T04:33:32.619Z,0.30
2019-05-09T04:34:32.620Z,0.30
2019-05-09T04:35:32.623Z,0.50
2019-05-09T04:36:32.612Z,0.30
2019-05-09T04:37:32.609Z,0.40
2019-05-09T04:38:32.617Z,0.40
2019-05-09T04:39:32.551Z,0.40
2019-05-09T04:40:37.816Z,0.20
2019-05-09T04:41:32.543Z,0.30
2019-05-09T04:42:35.111Z,0.20
2019-05-09T04:43:36.712Z,0.20
2019-05-09T04:44:33.074Z,0.40
2019-05-09T04:45:33.255Z,0.30
2019-05-09T04:46:32.476Z,0.30
2019-05-09T04:47:33.724Z,0.50
2019-05-09T04:48:32.451Z,0.50
2019-05-09T04:49:39.543Z,0.40
2019-05-09T04:50:32.450Z,0.50
2019-05-09T04:51:32.417Z,0.40
2019-05-09T04:52:32.606Z,0.20
2019-05-09T04:53:32.401Z,0.40
2019-05-09T04:54:33.074Z,0.40
2019-05-09T04:55:32.379Z,0.30
2019-05-09T04:56:33.072Z,0.40
2019-05-09T04:57:32.616Z,0.40
2019-05-09T04:58:32.357Z,0.30
2019-05-09T04:59:33.081Z,0.40
2019-05-09T05:00:32.361Z,0.50
2019-05-09T05:01:32.313Z,0.30
2019-05-09T05:02:32.594Z,0.30
2019-05-09T05:03:32.322Z,0.30
2019-05-09T05:04:33.094Z,0.50
2019-05-09T05:05:32.272Z,0.20
2019-05-09T05:06:32.263Z,0.40
2019-05-09T05:07:32.589Z,0.30
2019-05-09T05:08:32.238Z,0.50
2019-05-09T05:09:32.228Z,0.40
2019-05-09T05:10:32.222Z,0.30
2019-05-09T05:11:32.202Z,0.40
2019-05-09T05:12:32.219Z,0.40
2019-05-09T05:13:32.183Z,0.50
2019-05-09T05:14:32.173Z,0.40
2019-05-09T05:15:33.098Z,0.20
2019-05-09T05:16:32.172Z,0.30
2019-05-09T05:17:32.148Z,0.40
2019-05-09T05:18:32.136Z,0.30
2019-05-09T05:19:35.626Z,0.30
2019-05-09T05:20:32.165Z,0.50
2019-05-09T05:21:33.103Z,0.30
2019-05-09T05:22:32.122Z,0.30
2019-05-09T05:23:32.069Z,0.50
2019-05-09T05:24:32.062Z,0.20
2019-05-09T05:25:32.056Z,0.40
2019-05-09T05:26:32.049Z,0.40
2019-05-09T05:27:32.048Z,0.40
2019-05-09T05:28:32.031Z,0.40
2019-05-09T05:29:32.012Z,0.40
2019-05-09T05:30:31.995Z,0.50
2019-05-09T05:31:31.989Z,0.40
2019-05-09T05:32:31.991Z,0.40
2019-05-09T05:33:31.970Z,0.50
2019-05-09T05:34:32.580Z,0.40
2019-05-09T05:35:31.944Z,0.30
2019-05-09T05:36:31.955Z,0.30
2019-05-09T05:37:32.583Z,0.30
2019-05-09T05:38:31.929Z,0.50
2019-05-09T05:39:31.912Z,0.30
2019-05-09T05:40:33.788Z,0.50
2019-05-09T05:41:31.886Z,0.30
2019-05-09T05:42:32.574Z,0.20
2019-05-09T05:43:43.331Z,0.20
2019-05-09T05:44:31.841Z,0.30
2019-05-09T05:45:31.830Z,0.30
2019-05-09T05:46:31.827Z,0.30
2019-05-09T05:47:31.827Z,0.40
2019-05-09T05:48:32.102Z,0.30
2019-05-09T05:49:31.801Z,0.60
2019-05-09T05:50:31.795Z,0.20
2019-05-09T05:51:31.768Z,0.40
2019-05-09T05:52:31.759Z,0.20
2019-05-09T05:53:31.791Z,0.20
2019-05-09T05:54:32.587Z,0.40
2019-05-09T05:55:32.573Z,0.50
2019-05-09T05:56:31.723Z,0.20
2019-05-09T05:57:32.578Z,0.30
2019-05-09T05:58:31.700Z,0.30
2019-05-09T05:59:32.579Z,0.30
2019-05-09T06:00:31.674Z,0.40
2019-05-09T06:01:31.690Z,0.30
2019-05-09T06:02:32.581Z,0.40
2019-05-09T06:03:32.100Z,0.30
2019-05-09T06:04:31.630Z,0.50
2019-05-09T06:05:31.625Z,0.20
2019-05-09T06:06:33.152Z,0.30
2019-05-09T06:07:31.603Z,0.30
2019-05-09T06:08:32.098Z,0.40
2019-05-09T06:09:31.580Z,0.30
2019-05-09T06:10:31.564Z,0.30
2019-05-09T06:11:31.570Z,0.40
2019-05-09T06:12:32.097Z,0.30
2019-05-09T06:13:31.618Z,0.40
2019-05-09T06:14:31.554Z,0.20
2019-05-09T06:15:31.509Z,0.40
2019-05-09T06:16:31.515Z,0.40
2019-05-09T06:17:31.488Z,0.50
2019-05-09T06:18:31.519Z,0.40
2019-05-09T06:19:31.468Z,0.40
2019-05-09T06:20:31.457Z,0.50
2019-05-09T06:21:31.441Z,0.90
2019-05-09T06:22:32.075Z,0.70
2019-05-09T06:23:31.434Z,0.80
2019-05-09T06:24:31.412Z,0.80
2019-05-09T06:25:32.076Z,1.00
2019-05-09T06:26:32.077Z,0.60
2019-05-09T06:27:32.074Z,0.90
2019-05-09T06:28:31.371Z,0.70
2019-05-09T06:29:31.374Z,0.70
2019-05-09T06:30:31.407Z,1.00
2019-05-09T06:31:32.077Z,0.80
2019-05-09T06:32:31.326Z,0.70
2019-05-09T06:33:31.321Z,0.80
2019-05-09T06:34:31.599Z,1.10
2019-05-09T06:35:31.291Z,0.80
2019-05-09T06:36:31.295Z,0.70
2019-05-09T06:37:31.267Z,1.00
2019-05-09T06:38:31.275Z,0.70
2019-05-09T06:39:31.589Z,0.60
2019-05-09T06:40:31.261Z,0.50
2019-05-09T06:41:31.226Z,0.70
2019-05-09T06:42:31.217Z,1.20
2019-05-09T06:43:32.196Z,0.60
2019-05-09T06:44:31.593Z,0.70
2019-05-09T06:45:31.192Z,0.70
2019-05-09T06:46:32.079Z,0.70
2019-05-09T06:47:31.179Z,1.00
2019-05-09T06:48:32.090Z,0.70
2019-05-09T06:49:31.954Z,0.90
2019-05-09T06:50:32.091Z,1.00
2019-05-09T06:51:32.078Z,0.60
2019-05-09T06:52:31.137Z,0.80
2019-05-09T06:53:31.094Z,0.90
2019-05-09T06:54:31.093Z,0.80
2019-05-09T06:55:31.083Z,1.10
2019-05-09T06:56:31.074Z,0.70
2019-05-09T06:57:31.050Z,0.80
2019-05-09T06:58:31.576Z,1.00
2019-05-09T06:59:31.110Z,0.70
2019-05-09T07:00:31.028Z,0.60
2019-05-09T07:01:31.005Z,0.70
2019-05-09T07:02:30.997Z,0.80
2019-05-09T07:03:30.986Z,0.80
2019-05-09T07:04:30.995Z,1.00
2019-05-09T07:05:31.577Z,0.80
2019-05-09T07:06:31.576Z,0.80
2019-05-09T07:07:30.956Z,0.60
2019-05-09T07:08:31.484Z,0.70
2019-05-09T07:09:30.964Z,0.90
2019-05-09T07:10:30.910Z,0.60
2019-05-09T07:11:30.898Z,0.60
2019-05-09T07:12:30.890Z,0.60
2019-05-09T07:13:30.890Z,0.90
2019-05-09T07:14:33.206Z,0.70
2019-05-09T07:15:30.875Z,0.90
2019-05-09T07:16:30.843Z,0.60
2019-05-09T07:17:32.218Z,0.70
2019-05-09T07:18:30.820Z,1.00
2019-05-09T07:19:31.578Z,1.70
2019-05-09T07:20:31.111Z,0.80
2019-05-09T07:21:30.842Z,0.80
2019-05-09T07:22:30.778Z,0.70
2019-05-09T07:23:30.775Z,1.10
2019-05-09T07:24:30.767Z,0.70
2019-05-09T07:25:30.839Z,0.90
2019-05-09T07:26:30.748Z,0.60
2019-05-09T07:27:30.727Z,0.90
2019-05-09T07:28:30.716Z,0.90
2019-05-09T07:29:31.623Z,1.10
2019-05-09T07:30:30.704Z,0.50
2019-05-09T07:31:31.578Z,1.10
2019-05-09T07:32:30.672Z,1.20
2019-05-09T07:33:31.585Z,0.70
2019-05-09T07:34:30.646Z,1.00
2019-05-09T07:35:31.098Z,0.70
2019-05-09T07:36:30.630Z,0.80
2019-05-09T07:37:31.588Z,0.80
2019-05-09T07:38:30.638Z,0.80
2019-05-09T07:39:30.589Z,0.90
2019-05-09T07:40:30.921Z,1.10
2019-05-09T07:41:33.599Z,0.70
2019-05-09T07:42:30.563Z,0.70
2019-05-09T07:43:30.553Z,0.90
2019-05-09T07:44:45.387Z,0.80
2019-05-09T07:45:30.543Z,0.80
2019-05-09T07:46:31.105Z,0.80
2019-05-09T07:47:30.505Z,0.80
2019-05-09T07:48:31.079Z,0.90
2019-05-09T07:49:30.504Z,0.80
2019-05-09T07:50:30.596Z,1.00
2019-05-09T07:51:31.081Z,0.90
2019-05-09T07:52:30.455Z,0.70
2019-05-09T07:53:31.076Z,1.10
2019-05-09T07:54:30.450Z,0.80
2019-05-09T07:55:31.113Z,1.10
2019-05-09T07:56:30.416Z,0.80
2019-05-09T07:57:30.411Z,0.70
2019-05-09T07:58:31.083Z,0.70
2019-05-09T07:59:30.372Z,0.90
2019-05-09T08:00:31.089Z,0.70
2019-05-09T08:01:30.408Z,1.10
2019-05-09T08:02:30.390Z,0.80
2019-05-09T08:03:30.355Z,1.00
2019-05-09T08:04:30.349Z,1.00
2019-05-09T08:05:31.120Z,1.00
2019-05-09T08:06:30.350Z,0.70
2019-05-09T08:07:30.338Z,1.20
2019-05-09T08:08:31.109Z,0.60
2019-05-09T08:09:30.377Z,0.70
2019-05-09T08:10:33.080Z,1.10
2019-05-09T08:11:32.265Z,1.00
2019-05-09T08:12:31.140Z,0.90
2019-05-09T08:13:31.112Z,0.90
2019-05-09T08:14:30.242Z,0.70
2019-05-09T08:15:30.222Z,0.80
2019-05-09T08:16:30.228Z,1.00
2019-05-09T08:17:31.107Z,0.80
2019-05-09T08:18:30.198Z,0.90
2019-05-09T08:19:30.183Z,0.70
2019-05-09T08:20:30.172Z,1.20
2019-05-09T08:21:30.187Z,0.90
2019-05-09T08:22:32.303Z,0.80
2019-05-09T08:23:30.135Z,0.80
2019-05-09T08:24:31.128Z,0.90
2019-05-09T08:25:31.134Z,0.90
2019-05-09T08:26:30.241Z,0.90
2019-05-09T08:27:30.423Z,0.90
2019-05-09T08:28:30.087Z,0.90
2019-05-09T08:29:30.081Z,1.20
2019-05-09T08:30:35.865Z,1.20
2019-05-09T08:31:30.065Z,0.70
2019-05-09T08:32:30.040Z,1.20
2019-05-09T08:33:30.608Z,1.00
2019-05-09T08:34:30.620Z,0.90
2019-05-09T08:35:30.610Z,0.80
2019-05-09T08:36:30.004Z,1.00
2019-05-09T08:37:30.614Z,0.70
2019-05-09T08:38:30.615Z,0.80
2019-05-09T08:39:29.961Z,1.50
2019-05-09T08:40:30.625Z,0.80
2019-05-09T08:41:29.994Z,1.00
2019-05-09T08:42:29.929Z,1.10
2019-05-09T08:43:29.917Z,0.70
2019-05-09T08:44:31.226Z,1.10
2019-05-09T08:45:31.481Z,0.90
2019-05-09T08:46:29.896Z,0.90
2019-05-09T08:47:29.876Z,0.80
2019-05-09T08:48:29.868Z,1.10
2019-05-09T08:49:30.608Z,1.00
2019-05-09T08:50:30.610Z,0.90
2019-05-09T08:51:37.593Z,1.10
2019-05-09T08:52:29.822Z,1.00
2019-05-09T08:53:29.812Z,1.30
2019-05-09T08:54:29.806Z,0.90
2019-05-09T08:55:30.614Z,1.10
2019-05-09T08:56:29.821Z,0.80
2019-05-09T08:57:29.770Z,1.20
2019-05-09T08:58:30.620Z,1.00
2019-05-09T08:59:30.615Z,0.80
2019-05-09T09:00:30.614Z,1.10
2019-05-09T09:01:50.052Z,1.00
2019-05-09T09:02:29.747Z,1.10
2019-05-09T09:03:30.617Z,1.10
2019-05-09T09:04:29.688Z,1.10
2019-05-09T09:05:30.612Z,0.90
2019-05-09T09:06:29.690Z,1.10
2019-05-09T09:07:29.972Z,1.40
2019-05-09T09:08:29.691Z,0.90
2019-05-09T09:09:29.638Z,0.80
2019-05-09T09:10:29.607Z,1.10
2019-05-09T09:11:29.618Z,1.00
2019-05-09T09:12:34.177Z,1.10
2019-05-09T09:13:29.576Z,1.00
2019-05-09T09:14:30.113Z,1.20
2019-05-09T09:15:55.934Z,1.40
2019-05-09T09:16:29.576Z,1.40
2019-05-09T09:17:29.638Z,1.10
2019-05-09T09:18:29.540Z,1.00
2019-05-09T09:19:30.120Z,1.10
2019-05-09T09:20:30.102Z,0.90
2019-05-09T09:21:29.522Z,1.10
2019-05-09T09:22:29.497Z,1.00
2019-05-09T09:23:42.867Z,0.90
2019-05-09T09:24:29.464Z,1.10
2019-05-09T09:25:30.157Z,1.10
2019-05-09T09:26:29.448Z,1.10
2019-05-09T09:27:29.429Z,0.90
2019-05-09T09:28:29.411Z,1.20
2019-05-09T09:29:29.402Z,1.00
2019-05-09T09:30:30.177Z,0.90
2019-05-09T09:31:30.128Z,1.00
2019-05-09T09:32:29.407Z,0.90
2019-05-09T09:33:29.357Z,1.20
2019-05-09T09:34:30.194Z,0.90
2019-05-09T09:35:30.097Z,1.00
2019-05-09T09:36:29.346Z,1.00
2019-05-09T09:37:43.987Z,0.90
2019-05-09T09:38:29.364Z,1.10
2019-05-09T09:39:31.297Z,0.90
2019-05-09T09:40:29.284Z,0.70
2019-05-09T09:41:29.278Z,0.80
2019-05-09T09:42:29.278Z,0.80
2019-05-09T09:43:29.293Z,0.80
2019-05-09T09:44:30.103Z,1.20
2019-05-09T09:45:29.231Z,0.80
2019-05-09T09:46:29.218Z,0.90
2019-05-09T09:47:29.628Z,0.90
2019-05-09T09:48:29.206Z,0.80
2019-05-09T09:49:29.540Z,1.00
2019-05-09T09:50:29.189Z,0.80
2019-05-09T09:51:29.160Z,0.90
2019-05-09T09:52:31.950Z,1.00
2019-05-09T09:53:29.643Z,1.00
2019-05-09T09:54:29.143Z,0.90
2019-05-09T09:55:29.120Z,1.00
2019-05-09T09:56:29.110Z,0.80
2019-05-09T09:57:29.602Z,1.00
2019-05-09T09:58:29.106Z,0.80
2019-05-09T09:59:29.075Z,0.70
2019-05-09T10:00:29.064Z,0.90
2019-05-09T10:01:29.114Z,0.80
2019-05-09T10:02:29.044Z,1.00
2019-05-09T10:03:29.113Z,0.90
2019-05-09T10:04:29.599Z,0.90
2019-05-09T10:05:29.010Z,0.60
2019-05-09T10:06:29.601Z,0.90
2019-05-09T10:07:29.092Z,0.80
2019-05-09T10:08:29.172Z,0.70
2019-05-09T10:09:29.603Z,1.00
2019-05-09T10:10:29.621Z,0.80
2019-05-09T10:11:29.611Z,0.80
2019-05-09T10:12:29.251Z,0.70
2019-05-09T10:13:28.936Z,0.70
2019-05-09T10:14:29.601Z,0.60
2019-05-09T10:15:29.611Z,0.60
2019-05-09T10:16:32.411Z,0.50
2019-05-09T10:17:29.605Z,0.60
2019-05-09T10:18:28.885Z,0.50
2019-05-09T10:19:29.608Z,0.60
2019-05-09T10:20:29.800Z,0.70
2019-05-09T10:21:28.848Z,0.50
2019-05-09T10:22:28.890Z,0.60
2019-05-09T10:23:28.859Z,0.50
2019-05-09T10:24:29.612Z,0.60
2019-05-09T10:25:28.804Z,0.60
2019-05-09T10:26:28.798Z,0.50
2019-05-09T10:27:29.609Z,0.30
2019-05-09T10:28:30.017Z,0.40
2019-05-09T10:29:28.753Z,0.60
2019-05-09T10:30:28.737Z,0.40
2019-05-09T10:31:28.735Z,0.80
2019-05-09T10:32:29.040Z,0.60
2019-05-09T10:33:29.120Z,0.40
2019-05-09T10:34:28.943Z,0.60
2019-05-09T10:35:29.604Z,0.40
2019-05-09T10:36:29.620Z,0.40
2019-05-09T10:37:29.614Z,0.50
2019-05-09T10:38:28.654Z,0.50
2019-05-09T10:39:28.656Z,0.50
2019-05-09T10:40:28.629Z,0.30
2019-05-09T10:41:28.632Z,0.30
2019-05-09T10:42:28.809Z,1.30
2019-05-09T10:43:37.573Z,0.40
2019-05-09T10:44:28.601Z,0.20
2019-05-09T10:45:28.596Z,0.50
2019-05-09T10:46:47.636Z,0.50
2019-05-09T10:47:28.554Z,0.30
2019-05-09T10:48:28.550Z,0.30
2019-05-09T10:49:28.552Z,0.30
2019-05-09T10:50:33.855Z,0.20
2019-05-09T10:51:28.513Z,0.50
2019-05-09T10:52:28.521Z,0.30
2019-05-09T10:53:29.104Z,0.30
2019-05-09T10:54:28.620Z,0.40
2019-05-09T10:55:28.518Z,0.40
2019-05-09T10:56:28.470Z,0.40
2019-05-09T10:57:31.835Z,0.20
2019-05-09T10:58:28.437Z,0.30
2019-05-09T10:59:28.436Z,0.40
2019-05-09T11:00:29.103Z,0.30
2019-05-09T11:01:29.420Z,0.30
2019-05-09T11:02:28.392Z,0.40
2019-05-09T11:03:28.382Z,0.30
2019-05-09T11:04:28.843Z,0.60
2019-05-09T11:05:28.363Z,0.70
2019-05-09T11:06:28.828Z,0.30
2019-05-09T11:07:29.111Z,0.30
2019-05-09T11:08:28.728Z,0.40
2019-05-09T11:09:29.253Z,0.20
2019-05-09T11:10:31.953Z,0.20
2019-05-09T11:11:29.238Z,0.60
2019-05-09T11:12:29.104Z,0.30
2019-05-09T11:13:29.125Z,0.20
2019-05-09T11:14:36.577Z,0.30
2019-05-09T11:15:28.261Z,0.40
2019-05-09T11:16:41.813Z,0.20
2019-05-09T11:17:28.694Z,0.30
2019-05-09T11:18:28.694Z,0.20
2019-05-09T11:19:28.888Z,0.40
2019-05-09T11:20:28.546Z,0.70
2019-05-09T11:21:29.105Z,0.30
2019-05-09T11:22:29.157Z,0.40
2019-05-09T11:23:29.201Z,0.50
2019-05-09T11:24:41.749Z,0.50
2019-05-09T11:25:28.202Z,0.50
2019-05-09T11:26:28.721Z,0.50
2019-05-09T11:27:29.291Z,0.70
2019-05-09T11:28:28.651Z,0.30
2019-05-09T11:29:28.249Z,0.40
2019-05-09T11:30:28.620Z,0.60
2019-05-09T11:31:29.448Z,0.50
2019-05-09T11:32:28.077Z,0.40
2019-05-09T11:33:28.104Z,0.60
2019-05-09T11:34:28.064Z,0.50
2019-05-09T11:35:28.047Z,0.50
2019-05-09T11:36:28.610Z,0.40
2019-05-09T11:37:28.020Z,0.50
2019-05-09T11:38:35.357Z,0.40
2019-05-09T11:39:36.591Z,0.40
2019-05-09T11:40:28.308Z,0.70
2019-05-09T11:41:29.504Z,0.70
2019-05-09T11:42:28.597Z,0.70
2019-05-09T11:43:29.870Z,0.70
2019-05-09T11:44:27.944Z,0.50
2019-05-09T11:45:28.219Z,0.50
2019-05-09T11:46:28.859Z,0.60
2019-05-09T11:47:38.192Z,0.70
2019-05-09T11:48:28.455Z,0.50
2019-05-09T11:49:29.501Z,0.90
2019-05-09T11:50:27.899Z,0.50
2019-05-09T11:51:28.958Z,0.80
2019-05-09T11:52:28.797Z,0.70
2019-05-09T11:53:28.761Z,0.70
2019-05-09T11:54:28.079Z,0.80
2019-05-09T11:55:35.417Z,0.80
2019-05-09T11:56:27.832Z,1.30
2019-05-09T11:57:31.298Z,1.00
2019-05-09T11:58:28.069Z,0.90
2019-05-09T11:59:28.176Z,0.60
2019-05-09T12:00:29.436Z,0.70
2019-05-09T12:01:29.293Z,0.60
2019-05-09T12:02:28.047Z,1.10
2019-05-09T12:03:28.606Z,0.70
2019-05-09T12:04:28.219Z,1.00
2019-05-09T12:05:28.757Z,0.60
2019-05-09T12:06:28.971Z,0.80
2019-05-09T12:07:28.832Z,0.80
2019-05-09T12:08:27.695Z,0.70
2019-05-09T12:09:28.821Z,0.50
2019-05-09T12:10:28.708Z,0.80
2019-05-09T12:11:28.617Z,1.00
2019-05-09T12:12:28.658Z,0.60
2019-05-09T12:13:27.635Z,0.70
2019-05-09T12:14:27.779Z,0.60
2019-05-09T12:15:29.036Z,0.90
2019-05-09T12:16:28.084Z,0.80
2019-05-09T12:17:40.779Z,0.60
2019-05-09T12:18:28.558Z,0.90
2019-05-09T12:19:29.558Z,1.10
2019-05-09T12:20:27.800Z,0.60
2019-05-09T12:21:28.770Z,0.70
2019-05-09T12:22:28.049Z,0.60
2019-05-09T12:23:29.180Z,0.90
2019-05-09T12:24:29.648Z,0.50
2019-05-09T12:25:28.342Z,0.60
2019-05-09T12:26:29.208Z,1.00
2019-05-09T12:27:28.110Z,0.80
2019-05-09T12:28:28.151Z,0.60
2019-05-09T12:29:28.749Z,0.90
2019-05-09T12:30:28.466Z,0.70
2019-05-09T12:31:28.824Z,0.70
2019-05-09T12:32:28.442Z,0.60
2019-05-09T12:33:28.793Z,0.80
2019-05-09T12:34:27.738Z,0.70
2019-05-09T12:35:27.628Z,0.70
2019-05-09T12:36:28.675Z,0.90
2019-05-09T12:37:28.197Z,0.70
2019-05-09T12:38:28.131Z,0.80
2019-05-09T12:39:27.577Z,0.60
2019-05-09T12:40:28.114Z,0.60
2019-05-09T12:41:31.685Z,0.70
2019-05-09T12:42:28.882Z,0.90
2019-05-09T12:43:28.362Z,0.80
2019-05-09T12:44:28.794Z,1.00
2019-05-09T12:45:28.111Z,1.00
2019-05-09T12:46:28.400Z,0.60
2019-05-09T12:47:29.081Z,0.60
2019-05-09T12:48:27.880Z,0.60
2019-05-09T12:49:28.288Z,0.70
2019-05-09T12:50:29.395Z,0.60
2019-05-09T12:51:28.213Z,0.80
2019-05-09T12:52:28.724Z,0.70
2019-05-09T12:53:28.163Z,0.50
2019-05-09T12:54:27.976Z,0.60
2019-05-09T12:55:28.130Z,1.10
2019-05-09T12:56:28.459Z,0.80
2019-05-09T12:57:28.933Z,0.60
2019-05-09T12:58:27.857Z,1.10
2019-05-09T12:59:28.753Z,1.10
2019-05-09T13:00:28.466Z,1.10
2019-05-09T13:01:27.633Z,1.00
2019-05-09T13:02:27.924Z,0.90
2019-05-09T13:03:27.752Z,0.80
2019-05-09T13:04:28.132Z,0.90
2019-05-09T13:05:27.428Z,0.90
2019-05-09T13:06:29.623Z,0.70
2019-05-09T13:07:29.747Z,0.90
2019-05-09T13:08:27.971Z,0.90
2019-05-09T13:09:28.616Z,1.10
2019-05-09T13:10:28.353Z,1.00
2019-05-09T13:11:27.909Z,0.90
2019-05-09T13:12:29.164Z,1.10
2019-05-09T13:13:30.210Z,0.80
2019-05-09T13:14:28.598Z,0.90
2019-05-09T13:15:31.080Z,0.80
2019-05-09T13:16:43.517Z,1.10
2019-05-09T13:17:27.333Z,0.90
2019-05-09T13:18:29.750Z,0.90